Time;durP1;ratioP1;P1;durP2;ratioP2;P2;SDS_P1;SDS_P2;PMS_P1;PMS_P2;Temp;Humidity;BMP_temperature;BMP_pressure;BME280_temperature;BME280_humidity;BME280_pressure;Samples;Min_cycle;Max_cycle;Signal;HPM_P1;HPM_P2
2023/04/30 00:00:13;;;;;;;25.80;13.10;;;;;;;10.34;100.00;100372.27;107209;1282;60458;-84
2023/04/30 00:02:39;;;;;;;27.00;11.90;;;;;;;10.36;100.00;100366.73;107183;1283;58982;-84
2023/04/30 00:05:05;;;;;;;23.30;12.20;;;;;;;10.34;100.00;100357.40;107016;1283;59210;-84
2023/04/30 00:07:31;;;;;;;23.80;12.70;;;;;;;10.34;100.00;100350.77;107156;1282;59222;-83
2023/04/30 00:09:56;;;;;;;29.40;14.10;;;;;;;10.31;100.00;100347.67;107086;1283;59125;-83
2023/04/30 00:12:22;;;;;;;27.40;13.90;;;;;;;10.23;100.00;100341.88;106797;1283;59172;-83
2023/04/30 00:14:48;;;;;;;27.40;13.60;;;;;;;10.20;100.00;100334.95;107226;1283;72451;-83
2023/04/30 00:17:14;;;;;;;26.90;13.40;;;;;;;10.18;100.00;100329.19;106754;1281;59114;-84
2023/04/30 00:19:41;;;;;;;28.80;14.20;;;;;;;10.17;100.00;100327.34;107058;1285;59105;-83
2023/04/30 00:22:07;;;;;;;32.00;13.20;;;;;;;10.17;100.00;100323.58;107229;1282;59084;-84
2023/04/30 00:24:33;;;;;;;31.00;13.50;;;;;;;10.16;100.00;100316.59;107071;1283;59365;-84
2023/04/30 00:26:59;;;;;;;27.30;13.00;;;;;;;10.13;100.00;100308.23;107233;1281;59236;-84
2023/04/30 00:29:24;;;;;;;27.90;14.70;;;;;;;10.08;100.00;100303.30;107227;1282;58966;-84
2023/04/30 00:31:50;;;;;;;25.20;13.30;;;;;;;10.05;100.00;100298.61;106744;1282;59175;-83
2023/04/30 00:34:15;;;;;;;27.70;13.80;;;;;;;9.99;100.00;100293.37;107302;1282;59010;-83
2023/04/30 00:36:41;;;;;;;29.10;14.60;;;;;;;9.96;100.00;100295.29;106735;1283;59194;-83
2023/04/30 00:39:06;;;;;;;30.30;14.20;;;;;;;9.94;100.00;100292.86;107224;1283;59044;-83
2023/04/30 00:41:34;;;;;;;29.10;14.00;;;;;;;9.95;100.00;100291.58;107281;1282;59103;-84
2023/04/30 00:44:01;;;;;;;26.00;13.10;;;;;;;9.93;100.00;100285.10;107221;1282;59316;-83
2023/04/30 00:46:27;;;;;;;28.10;13.10;;;;;;;9.91;100.00;100279.23;107262;1281;59070;-83
2023/04/30 00:48:53;;;;;;;27.30;13.10;;;;;;;9.91;100.00;100275.78;107044;1282;59083;-84
2023/04/30 00:51:19;;;;;;;22.70;12.60;;;;;;;9.93;100.00;100269.98;107228;1282;59010;-84
2023/04/30 00:53:45;;;;;;;21.80;11.80;;;;;;;9.92;100.00;100265.93;106874;1283;59577;-84
2023/04/30 00:56:14;;;;;;;28.10;13.10;;;;;;;9.92;100.00;100265.61;107083;1283;58997;-83
2023/04/30 00:58:40;;;;;;;28.20;13.50;;;;;;;9.92;100.00;100259.36;107244;1281;73180;-83
2023/04/30 01:01:06;;;;;;;31.50;13.70;;;;;;;9.91;100.00;100262.65;107175;1282;59404;-84
2023/04/30 01:03:31;;;;;;;26.80;12.00;;;;;;;9.89;100.00;100261.08;107241;1281;58962;-84
2023/04/30 01:05:57;;;;;;;25.30;11.80;;;;;;;9.86;100.00;100258.48;106936;1283;59090;-84
2023/04/30 01:08:24;;;;;;;22.50;12.10;;;;;;;9.81;100.00;100247.11;107314;1282;59050;-84
2023/04/30 01:11:08;;;;;;;25.80;12.70;;;;;;;9.73;100.00;100247.23;107215;1285;72604;-84
2023/04/30 01:13:58;;;;;;;26.10;12.70;;;;;;;9.77;100.00;100252.09;107187;1281;61934;-84
2023/04/30 01:16:32;;;;;;;25.50;12.20;;;;;;;9.81;100.00;100254.85;107224;1282;60934;-85
2023/04/30 01:19:08;;;;;;;21.30;11.90;;;;;;;9.80;100.00;100254.05;107225;1281;75542;-84
2023/04/30 01:21:40;;;;;;;24.10;12.30;;;;;;;9.80;100.00;100257.27;106900;1283;73687;-83
2023/04/30 01:24:23;;;;;;;27.10;13.10;;;;;;;9.78;100.00;100258.61;107194;1282;73923;-83
2023/04/30 01:26:56;;;;;;;25.40;13.40;;;;;;;9.78;100.00;100261.90;107238;1281;62573;-83
2023/04/30 01:29:23;;;;;;;23.70;12.40;;;;;;;9.75;100.00;100259.19;106709;1283;59733;-84
2023/04/30 01:31:49;;;;;;;25.90;13.40;;;;;;;9.72;100.00;100251.91;107213;1282;75702;-83
2023/04/30 01:34:15;;;;;;;24.30;12.50;;;;;;;9.69;100.00;100252.00;107206;1282;58971;-83
2023/04/30 01:37:10;;;;;;;22.20;11.90;;;;;;;9.67;100.00;100256.13;107222;1281;59085;-83
2023/04/30 01:40:05;;;;;;;23.30;12.90;;;;;;;9.66;100.00;100253.92;107215;1283;62136;-84
2023/04/30 01:43:04;;;;;;;24.40;11.90;;;;;;;9.70;100.00;100250.55;106775;1281;59118;-84
2023/04/30 01:45:50;;;;;;;22.10;11.30;;;;;;;9.69;100.00;100255.34;107237;1282;75329;-84
2023/04/30 01:48:39;;;;;;;24.60;12.00;;;;;;;9.61;100.00;100256.16;106275;1290;73214;-84
2023/04/30 01:51:16;;;;;;;24.20;13.20;;;;;;;9.62;100.00;100255.14;106043;1291;72855;-84
2023/04/30 01:53:43;;;;;;;23.40;12.20;;;;;;;9.65;100.00;100243.10;106212;1292;61764;-84
2023/04/30 01:56:15;;;;;;;21.10;11.80;;;;;;;9.66;100.00;100233.42;106291;1294;60045;-84
2023/04/30 01:58:41;;;;;;;20.00;11.70;;;;;;;9.66;100.00;100234.55;106068;1291;75492;-84
2023/04/30 02:01:23;;;;;;;22.40;12.40;;;;;;;9.67;100.00;100239.19;106079;1290;59790;-83
2023/04/30 02:03:49;;;;;;;25.00;11.70;;;;;;;9.70;100.00;100235.70;106180;1291;71692;-83
2023/04/30 02:06:14;;;;;;;24.30;12.50;;;;;;;9.70;100.00;100232.10;106231;1291;59127;-83
2023/04/30 02:08:40;;;;;;;23.60;12.30;;;;;;;9.69;100.00;100227.80;106275;1291;59122;-83
2023/04/30 02:11:05;;;;;;;21.20;12.10;;;;;;;9.66;100.00;100228.30;106270;1291;59274;-84
2023/04/30 02:13:31;;;;;;;21.60;12.00;;;;;;;9.65;100.00;100228.53;106294;1290;59051;-84
2023/04/30 02:15:56;;;;;;;23.20;11.30;;;;;;;9.61;100.00;100227.21;106244;1291;59165;-83
2023/04/30 02:18:22;;;;;;;23.60;12.70;;;;;;;9.60;100.00;100235.54;106337;1291;59137;-84
2023/04/30 02:20:47;;;;;;;22.10;12.30;;;;;;;9.65;100.00;100239.77;106278;1290;59230;-84
2023/04/30 02:23:14;;;;;;;26.10;12.30;;;;;;;9.70;100.00;100239.30;106244;1291;59169;-83
2023/04/30 02:25:40;;;;;;;20.70;11.40;;;;;;;9.73;100.00;100237.86;106652;1282;59266;-84
2023/04/30 02:28:06;;;;;;;21.60;11.30;;;;;;;9.76;100.00;100241.16;107216;1282;59102;-84
2023/04/30 02:30:31;;;;;;;23.00;12.10;;;;;;;9.81;100.00;100240.53;107244;1283;59134;-84
2023/04/30 02:32:57;;;;;;;23.70;12.50;;;;;;;9.85;100.00;100240.49;107101;1283;59081;-84
2023/04/30 02:35:22;;;;;;;22.50;12.20;;;;;;;9.85;100.00;100240.81;106778;1284;59016;-84
2023/04/30 02:37:48;;;;;;;27.20;12.00;;;;;;;9.88;100.00;100242.88;107172;1283;59134;-84
2023/04/30 02:40:13;;;;;;;26.10;13.20;;;;;;;9.91;100.00;100243.95;106886;1283;59132;-84
2023/04/30 02:42:39;;;;;;;21.90;11.80;;;;;;;9.92;100.00;100241.65;106947;1283;59141;-83
2023/04/30 02:45:05;;;;;;;23.10;12.30;;;;;;;9.93;100.00;100240.14;107208;1283;59112;-84
2023/04/30 02:47:30;;;;;;;21.90;11.60;;;;;;;9.92;100.00;100238.53;106905;1283;59077;-83
2023/04/30 02:49:56;;;;;;;22.30;11.30;;;;;;;9.89;100.00;100241.16;107261;1283;59068;-84
2023/04/30 02:52:21;;;;;;;20.80;11.00;;;;;;;9.82;100.00;100240.48;107243;1282;58991;-84
2023/04/30 02:54:47;;;;;;;15.90;9.30;;;;;;;9.82;100.00;100234.29;106915;1286;59179;-84
2023/04/30 02:57:13;;;;;;;18.50;9.60;;;;;;;9.83;100.00;100226.76;107147;1283;60756;-84
2023/04/30 02:59:57;;;;;;;20.80;10.40;;;;;;;9.74;100.00;100218.81;106934;1283;59328;-84
2023/04/30 03:02:22;;;;;;;17.40;9.80;;;;;;;9.79;100.00;100221.27;107183;1282;74626;-84
2023/04/30 03:04:49;;;;;;;21.30;9.90;;;;;;;9.78;100.00;100215.66;107204;1283;59153;-84
2023/04/30 03:07:14;;;;;;;18.40;9.80;;;;;;;9.79;100.00;100220.57;106747;1283;59091;-84
2023/04/30 03:09:40;;;;;;;19.30;10.00;;;;;;;9.81;100.00;100225.30;107167;1283;69699;-84
2023/04/30 03:12:05;;;;;;;19.40;9.90;;;;;;;9.81;100.00;100226.86;107218;1283;59055;-83
2023/04/30 03:14:31;;;;;;;22.60;11.00;;;;;;;9.83;100.00;100222.71;107260;1282;59112;-83
2023/04/30 03:16:56;;;;;;;21.00;11.20;;;;;;;9.86;100.00;100224.02;107210;1282;73563;-84
2023/04/30 03:19:24;;;;;;;19.90;10.00;;;;;;;9.88;100.00;100229.15;107255;1281;59025;-84
2023/04/30 03:21:51;;;;;;;21.50;10.20;;;;;;;9.88;100.00;100224.05;107259;1282;59011;-83
2023/04/30 03:24:17;;;;;;;18.80;9.80;;;;;;;9.89;100.00;100215.91;107229;1281;74750;-83
2023/04/30 03:26:42;;;;;;;33.50;10.20;;;;;;;9.89;100.00;100212.79;107231;1281;59093;-83
2023/04/30 03:29:08;;;;;;;19.40;10.50;;;;;;;9.91;100.00;100210.75;107237;1281;59100;-83
2023/04/30 03:31:33;;;;;;;16.20;9.10;;;;;;;9.89;100.00;100206.71;107212;1283;58986;-83
2023/04/30 03:33:59;;;;;;;18.30;9.50;;;;;;;9.87;100.00;100206.42;107271;1282;59055;-83
2023/04/30 03:36:26;;;;;;;18.80;10.00;;;;;;;9.89;100.00;100206.50;107328;1281;59463;-83
2023/04/30 03:38:51;;;;;;;16.80;9.40;;;;;;;9.92;100.00;100203.27;107235;1281;73384;-83
2023/04/30 03:41:17;;;;;;;16.00;8.70;;;;;;;9.98;100.00;100200.54;107258;1282;58982;-83
2023/04/30 03:43:43;;;;;;;17.00;9.50;;;;;;;9.99;100.00;100194.67;107261;1281;58949;-83
2023/04/30 03:46:08;;;;;;;17.40;8.80;;;;;;;10.03;100.00;100194.37;107242;1281;59166;-83
2023/04/30 03:48:34;;;;;;;18.80;10.00;;;;;;;10.09;100.00;100200.19;107064;1282;59391;-83
2023/04/30 03:51:00;;;;;;;14.30;8.30;;;;;;;10.15;100.00;100204.94;107243;1282;58944;-83
2023/04/30 03:53:25;;;;;;;17.20;9.70;;;;;;;10.18;100.00;100205.33;107276;1282;61143;-83
2023/04/30 03:55:53;;;;;;;15.20;8.40;;;;;;;10.25;100.00;100205.94;107268;1282;59118;-83
2023/04/30 03:58:19;;;;;;;15.00;8.20;;;;;;;10.30;100.00;100206.67;107221;1283;59022;-83
2023/04/30 04:00:46;;;;;;;13.30;7.60;;;;;;;10.32;100.00;100203.16;107190;1281;59127;-83
2023/04/30 04:03:13;;;;;;;16.30;9.00;;;;;;;10.35;100.00;100200.36;107028;1281;60967;-83
2023/04/30 04:05:39;;;;;;;13.50;7.00;;;;;;;10.34;100.00;100199.25;107055;1281;59927;-83
2023/04/30 04:08:05;;;;;;;13.70;7.60;;;;;;;10.33;100.00;100195.09;106942;1281;59115;-83
2023/04/30 04:10:31;;;;;;;12.60;6.60;;;;;;;10.31;100.00;100189.15;107223;1282;59551;-83
2023/04/30 04:12:57;;;;;;;13.00;6.70;;;;;;;10.33;100.00;100182.80;107221;1281;59022;-82
2023/04/30 04:15:22;;;;;;;13.40;7.30;;;;;;;10.35;100.00;100180.45;107258;1281;59069;-83
2023/04/30 04:17:48;;;;;;;12.30;6.90;;;;;;;10.39;100.00;100183.56;107303;1282;58978;-83
2023/04/30 04:20:13;;;;;;;13.30;7.30;;;;;;;10.41;100.00;100178.29;107234;1281;73891;-83
2023/04/30 04:22:39;;;;;;;12.10;7.20;;;;;;;10.48;100.00;100180.55;107275;1279;59072;-83
2023/04/30 04:25:06;;;;;;;12.80;7.20;;;;;;;10.51;100.00;100177.00;107304;1279;59049;-83
2023/04/30 04:27:32;;;;;;;11.80;6.10;;;;;;;10.53;100.00;100175.31;107483;1279;59061;-83
2023/04/30 04:29:57;;;;;;;12.70;7.00;;;;;;;10.56;100.00;100170.48;107289;1279;59061;-83
2023/04/30 04:32:23;;;;;;;10.00;5.90;;;;;;;10.61;100.00;100172.70;107467;1279;59082;-83
2023/04/30 04:34:49;;;;;;;10.70;5.80;;;;;;;10.62;100.00;100174.84;107524;1279;59277;-83
2023/04/30 04:37:16;;;;;;;9.10;5.50;;;;;;;10.65;100.00;100171.23;107027;1280;61289;-83
2023/04/30 04:39:42;;;;;;;12.90;5.90;;;;;;;10.68;100.00;100173.49;107447;1279;75412;-83
2023/04/30 04:42:07;;;;;;;10.20;5.70;;;;;;;10.68;100.00;100177.05;107494;1279;59105;-82
2023/04/30 04:44:33;;;;;;;10.20;5.00;;;;;;;10.70;100.00;100179.30;107412;1279;59070;-83
2023/04/30 04:46:58;;;;;;;10.70;5.60;;;;;;;10.71;100.00;100182.65;107464;1279;59033;-83
2023/04/30 04:49:24;;;;;;;9.40;5.70;;;;;;;10.72;100.00;100185.61;107566;1279;59346;-83
2023/04/30 04:51:50;;;;;;;11.00;5.80;;;;;;;10.71;100.00;100178.27;107483;1279;73321;-83
2023/04/30 04:54:15;;;;;;;10.00;5.40;;;;;;;10.75;100.00;100182.80;107473;1279;59060;-82
2023/04/30 04:56:41;;;;;;;8.60;5.00;;;;;;;10.81;100.00;100179.84;106951;1279;59154;-83
2023/04/30 04:59:07;;;;;;;7.70;4.10;;;;;;;10.84;100.00;100182.10;107515;1279;59084;-82
2023/04/30 05:01:32;;;;;;;6.90;4.40;;;;;;;10.83;100.00;100181.34;107495;1279;59123;-82
2023/04/30 05:03:58;;;;;;;5.90;3.90;;;;;;;10.82;100.00;100181.02;107457;1279;72282;-82
2023/04/30 05:06:23;;;;;;;6.80;3.90;;;;;;;10.83;100.00;100181.02;107469;1279;59003;-82
2023/04/30 05:08:49;;;;;;;7.70;4.10;;;;;;;10.86;100.00;100178.38;107482;1279;59150;-82
2023/04/30 05:11:15;;;;;;;5.50;3.60;;;;;;;10.85;100.00;100180.85;107489;1279;59054;-82
2023/04/30 05:13:41;;;;;;;7.30;4.20;;;;;;;10.84;100.00;100177.46;107468;1279;59016;-82
2023/04/30 05:16:06;;;;;;;8.30;3.80;;;;;;;10.90;100.00;100185.70;107233;1280;59124;-82
2023/04/30 05:18:32;;;;;;;6.90;3.20;;;;;;;10.91;100.00;100188.66;107237;1279;59063;-82
2023/04/30 05:20:57;;;;;;;5.10;3.10;;;;;;;10.87;100.00;100190.34;107492;1279;59084;-82
2023/04/30 05:23:23;;;;;;;7.40;3.90;;;;;;;10.80;100.00;100190.40;107452;1279;59054;-82
2023/04/30 05:25:52;;;;;;;5.10;3.20;;;;;;;10.82;100.00;100193.47;107436;1279;59005;-82
2023/04/30 05:28:17;;;;;;;5.90;3.60;;;;;;;10.88;100.00;100196.16;107464;1279;59012;-81
2023/04/30 05:30:43;;;;;;;5.80;3.20;;;;;;;10.87;100.00;100196.45;107483;1279;59082;-82
2023/04/30 05:33:08;;;;;;;6.80;3.10;;;;;;;10.87;100.00;100192.77;107500;1279;59279;-81
2023/04/30 05:35:34;;;;;;;5.90;3.50;;;;;;;10.89;100.00;100192.02;107529;1279;59364;-82
2023/04/30 05:38:01;;;;;;;8.50;3.60;;;;;;;10.94;100.00;100189.95;107172;1279;62139;-81
2023/04/30 05:40:28;;;;;;;6.20;3.40;;;;;;;10.95;100.00;100191.31;107435;1279;60379;-82
2023/04/30 05:42:53;;;;;;;9.70;3.70;;;;;;;11.02;100.00;100189.45;107435;1279;59545;-82
2023/04/30 05:45:19;;;;;;;6.30;3.70;;;;;;;11.15;100.00;100189.91;107499;1279;59170;-82
2023/04/30 05:47:44;;;;;;;5.60;3.70;;;;;;;11.24;100.00;100192.42;107418;1279;59201;-82
2023/04/30 05:50:10;;;;;;;8.00;3.70;;;;;;;11.30;100.00;100192.80;107466;1279;59078;-81
2023/04/30 05:52:36;;;;;;;6.30;3.60;;;;;;;11.33;100.00;100186.73;107502;1279;59019;-82
2023/04/30 05:55:01;;;;;;;6.90;3.40;;;;;;;11.43;100.00;100180.92;107460;1279;74323;-81
2023/04/30 05:57:28;;;;;;;6.30;3.20;;;;;;;11.56;100.00;100177.86;107441;1279;59088;-81
2023/04/30 05:59:53;;;;;;;4.80;3.00;;;;;;;11.65;100.00;100177.88;107164;1279;59069;-82
2023/04/30 06:02:19;;;;;;;4.40;2.50;;;;;;;11.74;100.00;100177.52;107478;1279;59031;-81
2023/04/30 06:04:44;;;;;;;6.10;2.70;;;;;;;11.80;100.00;100185.14;107497;1279;59230;-81
2023/04/30 06:07:10;;;;;;;7.40;2.70;;;;;;;11.84;100.00;100178.22;107470;1279;59133;-81
2023/04/30 06:09:35;;;;;;;5.60;2.90;;;;;;;11.90;100.00;100175.66;107458;1279;60909;-81
2023/04/30 06:12:02;;;;;;;4.30;2.20;;;;;;;11.91;100.00;100175.39;107494;1279;59114;-82
2023/04/30 06:14:28;;;;;;;4.90;2.40;;;;;;;11.94;100.00;100174.95;107485;1279;59033;-82
2023/04/30 06:16:53;;;;;;;3.50;2.20;;;;;;;11.94;100.00;100168.30;107484;1279;59419;-82
2023/04/30 06:19:19;;;;;;;3.70;2.30;;;;;;;11.88;100.00;100168.44;107435;1279;59408;-82
2023/04/30 06:21:45;;;;;;;4.90;2.30;;;;;;;11.82;100.00;100168.40;106971;1279;59353;-82
2023/04/30 06:24:10;;;;;;;4.10;2.50;;;;;;;11.78;100.00;100166.63;107551;1279;59041;-81
2023/04/30 06:26:36;;;;;;;4.60;2.30;;;;;;;11.76;100.00;100163.17;107105;1279;72386;-82
2023/04/30 06:29:02;;;;;;;4.60;2.60;;;;;;;11.83;100.00;100162.57;107447;1279;59034;-82
2023/04/30 06:31:27;;;;;;;5.60;2.70;;;;;;;11.88;100.00;100161.80;107476;1279;58943;-81
2023/04/30 06:33:53;;;;;;;6.20;2.70;;;;;;;11.93;100.00;100163.45;107434;1279;59056;-82
2023/04/30 06:36:19;;;;;;;5.70;2.30;;;;;;;11.99;100.00;100169.02;107344;1279;58993;-82
2023/04/30 06:41:31;;;;;;;2.60;2.20;;;;;;;12.08;100.00;100167.25;107416;1279;60582;-81
2023/04/30 06:43:57;;;;;;;3.90;2.30;;;;;;;12.09;100.00;100168.75;107437;1279;59075;-81
2023/04/30 06:46:22;;;;;;;4.20;2.50;;;;;;;12.15;100.00;100173.57;107286;1279;59070;-82
2023/04/30 06:48:48;;;;;;;5.40;2.10;;;;;;;12.13;100.00;100171.42;107413;1279;59182;-82
2023/04/30 06:51:13;;;;;;;5.30;1.80;;;;;;;12.12;100.00;100168.46;107489;1279;59010;-82
2023/04/30 06:53:39;;;;;;;5.10;2.40;;;;;;;12.08;100.00;100167.19;107443;1279;61173;-81
2023/04/30 06:56:05;;;;;;;6.10;2.50;;;;;;;12.06;100.00;100169.31;107318;1279;59055;-81
2023/04/30 06:58:30;;;;;;;3.50;2.30;;;;;;;12.08;100.00;100168.55;107460;1279;59064;-81
2023/04/30 07:00:57;;;;;;;5.20;2.00;;;;;;;12.16;100.00;100166.42;107456;1279;59060;-82
2023/04/30 07:03:22;;;;;;;10.20;2.60;;;;;;;12.19;100.00;100166.48;107444;1279;59068;-82
2023/04/30 07:05:48;;;;;;;5.10;2.20;;;;;;;12.24;100.00;100166.44;107522;1279;59165;-82
2023/04/30 07:08:14;;;;;;;3.90;2.30;;;;;;;12.28;100.00;100162.51;107438;1279;74653;-82
2023/04/30 07:10:39;;;;;;;4.70;2.50;;;;;;;12.26;100.00;100157.71;107444;1279;59088;-82
2023/04/30 07:13:07;;;;;;;6.10;2.00;;;;;;;12.29;100.00;100157.10;107418;1279;59015;-82
2023/04/30 07:15:32;;;;;;;4.40;2.40;;;;;;;12.25;100.00;100159.94;107486;1279;59354;-82
2023/04/30 07:17:58;;;;;;;3.80;2.50;;;;;;;12.30;100.00;100160.23;107446;1279;59101;-83
2023/04/30 07:20:23;;;;;;;6.60;2.30;;;;;;;12.35;100.00;100164.73;107448;1279;59193;-83
2023/04/30 07:22:49;;;;;;;2.30;1.90;;;;;;;12.33;100.00;100165.08;107463;1279;59034;-83
2023/04/30 07:25:15;;;;;;;2.80;2.00;;;;;;;12.28;100.00;100168.19;107449;1279;60234;-82
2023/04/30 07:27:40;;;;;;;4.20;2.40;;;;;;;12.28;100.00;100167.92;107492;1279;59035;-83
2023/04/30 07:30:08;;;;;;;3.80;1.90;;;;;;;12.29;100.00;100159.37;107060;1279;59336;-83
2023/04/30 07:32:35;;;;;;;3.30;1.50;;;;;;;12.36;100.00;100152.67;107435;1279;73403;-83
2023/04/30 07:35:00;;;;;;;2.90;1.80;;;;;;;12.49;100.00;100148.88;107462;1279;58933;-82
2023/04/30 07:37:26;;;;;;;3.20;1.90;;;;;;;12.64;100.00;100142.88;107445;1279;59042;-83
2023/04/30 07:39:53;;;;;;;3.80;1.80;;;;;;;12.65;100.00;100144.52;107183;1279;59514;-83
2023/04/30 07:42:19;;;;;;;3.00;1.80;;;;;;;12.66;100.00;100144.90;107492;1279;59105;-83
2023/04/30 07:44:45;;;;;;;3.70;1.80;;;;;;;12.73;100.00;100146.24;107274;1279;59128;-83
2023/04/30 07:47:10;;;;;;;6.90;1.50;;;;;;;12.86;100.00;100150.98;107005;1279;59169;-83
2023/04/30 07:49:36;;;;;;;5.70;1.60;;;;;;;12.89;100.00;100151.98;107503;1279;59055;-83
2023/04/30 07:52:02;;;;;;;5.00;1.90;;;;;;;12.99;100.00;100154.80;107357;1279;59057;-83
2023/04/30 07:54:28;;;;;;;3.80;1.50;;;;;;;13.06;100.00;100158.23;107495;1279;72588;-83
2023/04/30 07:56:53;;;;;;;2.90;1.40;;;;;;;13.09;100.00;100154.58;106855;1285;59380;-82
2023/04/30 07:59:20;;;;;;;3.40;1.70;;;;;;;13.01;100.00;100153.20;106888;1285;59113;-83
2023/04/30 08:01:46;;;;;;;3.40;1.70;;;;;;;13.03;100.00;100155.09;106895;1284;59051;-83
2023/04/30 08:04:12;;;;;;;3.10;1.80;;;;;;;13.05;100.00;100156.52;106834;1285;59102;-83
2023/04/30 08:06:37;;;;;;;4.20;2.00;;;;;;;13.27;100.00;100155.44;106896;1284;59258;-83
2023/04/30 08:09:03;;;;;;;3.10;1.20;;;;;;;13.40;100.00;100150.41;106924;1285;59031;-84
2023/04/30 08:11:28;;;;;;;5.00;1.70;;;;;;;13.47;100.00;100151.80;106542;1285;75489;-84
2023/04/30 08:13:54;;;;;;;2.60;1.70;;;;;;;13.58;100.00;100151.11;106927;1285;59230;-83
2023/04/30 08:16:20;;;;;;;4.10;1.30;;;;;;;13.73;100.00;100151.39;106811;1285;59101;-83
2023/04/30 08:18:48;;;;;;;1.90;1.00;;;;;;;13.80;100.00;100156.17;106718;1284;59142;-83
2023/04/30 08:21:13;;;;;;;2.40;1.30;;;;;;;13.81;100.00;100160.61;106900;1285;59203;-84
2023/04/30 08:23:39;;;;;;;2.10;1.30;;;;;;;13.84;100.00;100158.58;106929;1285;59145;-84
2023/04/30 08:26:05;;;;;;;3.90;1.60;;;;;;;13.87;100.00;100151.21;106872;1284;59203;-83
2023/04/30 08:28:30;;;;;;;3.60;1.70;;;;;;;13.91;100.00;100148.11;107278;1279;59058;-83
2023/04/30 08:30:56;;;;;;;3.90;1.80;;;;;;;13.87;100.00;100148.48;107424;1279;59468;-84
2023/04/30 08:33:21;;;;;;;4.10;1.50;;;;;;;13.89;100.00;100147.71;107307;1279;59023;-84
2023/04/30 08:35:47;;;;;;;3.60;1.60;;;;;;;13.92;100.00;100150.71;107441;1279;59057;-84
2023/04/30 08:38:13;;;;;;;2.80;1.40;;;;;;;13.95;100.00;100148.88;107451;1279;58990;-84
2023/04/30 08:40:39;;;;;;;4.90;1.70;;;;;;;14.00;100.00;100148.48;107447;1279;59293;-84
2023/04/30 08:43:07;;;;;;;4.00;1.70;;;;;;;14.09;100.00;100147.48;107457;1279;74502;-84
2023/04/30 08:45:34;;;;;;;2.00;1.30;;;;;;;14.24;100.00;100147.26;107489;1279;73543;-84
2023/04/30 08:48:00;;;;;;;3.00;1.50;;;;;;;14.35;100.00;100149.10;107258;1279;73703;-84
2023/04/30 08:50:27;;;;;;;2.80;1.60;;;;;;;14.47;100.00;100144.44;107444;1279;59083;-84
2023/04/30 08:52:52;;;;;;;2.50;1.50;;;;;;;14.57;100.00;100151.34;107294;1280;59051;-84
2023/04/30 08:55:18;;;;;;;2.60;1.30;;;;;;;14.72;100.00;100156.63;107492;1279;59433;-84
2023/04/30 08:57:44;;;;;;;2.80;1.30;;;;;;;14.75;100.00;100160.64;107478;1279;59060;-84
2023/04/30 09:00:10;;;;;;;2.90;1.40;;;;;;;14.76;100.00;100156.61;106893;1284;59105;-84
2023/04/30 09:02:40;;;;;;;4.10;1.40;;;;;;;14.82;100.00;100160.90;106963;1284;59349;-85
2023/04/30 09:05:11;;;;;;;2.90;1.40;;;;;;;14.91;100.00;100167.51;106438;1284;59081;-84
2023/04/30 09:07:40;;;;;;;2.30;1.50;;;;;;;14.95;100.00;100171.73;106514;1286;74432;-85
2023/04/30 09:10:22;;;;;;;2.10;1.40;;;;;;;14.96;100.00;100169.97;106937;1284;73407;-84
2023/04/30 09:13:00;;;;;;;2.90;1.90;;;;;;;14.93;100.00;100170.58;106875;1284;72421;-84
2023/04/30 09:15:27;;;;;;;2.40;1.70;;;;;;;14.82;100.00;100168.98;106877;1284;62759;-85
2023/04/30 09:18:25;;;;;;;3.00;1.60;;;;;;;14.78;100.00;100167.27;106730;1285;59147;-84
2023/04/30 09:21:02;;;;;;;3.90;2.20;;;;;;;14.65;100.00;100182.40;106265;1289;75653;-85
2023/04/30 09:23:29;;;;;;;4.90;2.20;;;;;;;14.68;100.00;100190.02;106349;1289;74418;-85
2023/04/30 09:25:58;;;;;;;4.10;1.90;;;;;;;14.81;100.00;100187.52;105861;1289;73366;-85
2023/04/30 09:28:25;;;;;;;3.90;1.70;;;;;;;14.79;100.00;100192.96;106261;1290;62637;-85
2023/04/30 09:30:51;;;;;;;3.40;1.60;;;;;;;14.74;100.00;100190.61;106187;1290;60197;-85
2023/04/30 09:33:17;;;;;;;2.80;1.60;;;;;;;14.70;100.00;100194.23;106278;1289;59146;-85
2023/04/30 09:35:43;;;;;;;5.70;1.90;;;;;;;14.71;100.00;100197.87;106156;1290;59214;-85
2023/04/30 09:38:25;;;;;;;4.50;2.00;;;;;;;14.70;100.00;100205.42;106534;1285;59147;-85
2023/04/30 09:40:50;;;;;;;2.70;2.00;;;;;;;14.81;100.00;100204.75;106744;1285;62759;-85
2023/04/30 09:43:16;;;;;;;3.60;1.90;;;;;;;14.91;100.00;100201.98;106751;1285;59169;-85
2023/04/30 09:45:50;;;;;;;3.80;1.80;;;;;;;14.93;100.00;100202.91;106672;1286;59238;-85
2023/04/30 09:48:17;;;;;;;3.70;1.80;;;;;;;14.83;100.00;100202.23;106762;1285;74824;-85
2023/04/30 09:50:44;;;;;;;4.50;2.20;;;;;;;14.82;100.00;100205.18;106729;1285;72638;-85
2023/04/30 09:53:15;;;;;;;4.10;2.10;;;;;;;14.90;100.00;100204.55;106635;1286;59039;-85
2023/04/30 09:55:49;;;;;;;4.20;2.20;;;;;;;14.90;100.00;100207.20;106783;1285;59901;-85
2023/04/30 09:58:16;;;;;;;3.70;2.30;;;;;;;14.95;100.00;100208.90;107485;1279;75410;-85
2023/04/30 10:00:44;;;;;;;3.90;2.20;;;;;;;15.01;100.00;100214.02;106944;1279;74191;-85
2023/04/30 10:03:14;;;;;;;4.20;2.40;;;;;;;15.04;100.00;100216.45;106987;1279;72316;-83
2023/04/30 10:05:42;;;;;;;5.30;2.60;;;;;;;15.03;100.00;100217.13;107288;1280;61912;-83
2023/04/30 10:08:25;;;;;;;3.70;2.40;;;;;;;14.90;100.00;100219.65;107264;1279;59859;-84
2023/04/30 10:11:01;;;;;;;4.30;2.40;;;;;;;14.82;100.00;100218.67;107480;1279;73946;-83
2023/04/30 10:13:34;;;;;;;4.00;2.40;;;;;;;14.85;100.00;100213.73;107452;1279;74411;-83
2023/04/30 10:16:06;;;;;;;6.70;2.70;;;;;;;14.87;100.00;100219.89;106849;1279;72449;-83
2023/04/30 10:18:36;;;;;;;4.70;2.70;;;;;;;14.90;100.00;100218.38;107433;1279;60696;-83
2023/04/30 10:21:10;;;;;;;7.30;3.00;;;;;;;14.93;100.00;100214.14;107432;1279;60869;-84
2023/04/30 10:23:42;;;;;;;7.40;2.80;;;;;;;15.00;100.00;100211.49;107470;1279;74213;-83
2023/04/30 10:26:09;;;;;;;5.70;3.10;;;;;;;14.97;100.00;100216.20;107459;1279;74366;-83
2023/04/30 10:28:35;;;;;;;4.10;2.30;;;;;;;14.99;100.00;100216.11;107094;1279;440565;-84
2023/04/30 10:31:03;;;;;;;3.60;2.40;;;;;;;14.90;100.00;100218.21;107270;1279;59101;-83
2023/04/30 10:33:51;;;;;;;6.00;2.70;;;;;;;14.91;100.00;100221.29;107462;1279;61167;-84
2023/04/30 10:36:37;;;;;;;5.20;2.60;;;;;;;15.08;100.00;100224.05;107170;1279;73143;-84
2023/04/30 10:39:04;;;;;;;5.10;2.70;;;;;;;15.23;100.00;100223.66;107443;1279;74373;-84
2023/04/30 10:41:30;;;;;;;6.00;2.80;;;;;;;15.29;100.00;100221.77;107453;1279;59073;-84
2023/04/30 10:44:00;;;;;;;3.60;2.00;;;;;;;15.30;100.00;100224.23;107424;1279;59079;-84
2023/04/30 10:46:27;;;;;;;4.60;2.60;;;;;;;15.29;100.00;100225.27;107441;1279;60130;-83
2023/04/30 10:48:54;;;;;;;3.90;2.50;;;;;;;15.22;100.00;100220.14;107458;1279;75600;-84
2023/04/30 12:25:28;;;;;;;3.50;1.80;;;;;;;15.82;100.00;100229.65;107513;1279;59957;-85
2023/04/30 12:27:53;;;;;;;4.00;1.80;;;;;;;15.61;100.00;100227.23;107427;1279;75101;-85
2023/04/30 12:30:25;;;;;;;6.10;1.90;;;;;;;15.47;100.00;100232.34;107498;1279;59103;-85
2023/04/30 13:16:54;;;;;;;3.70;2.10;;;;;;;14.66;100.00;100260.65;107447;1279;74210;-86
2023/04/30 13:19:20;;;;;;;4.50;2.30;;;;;;;14.71;100.00;100263.25;107169;1279;72284;-86
2023/04/30 13:21:45;;;;;;;5.20;2.10;;;;;;;14.73;100.00;100265.88;107436;1279;59091;-86
2023/04/30 13:27:50;;;;;;;4.10;2.00;;;;;;;14.72;100.00;100270.77;103192;1289;600786;-86
2023/04/30 13:30:16;;;;;;;2.70;1.70;;;;;;;14.56;100.00;100272.10;103029;1293;60445;-85
